Time;durP1;ratioP1;P1;durP2;ratioP2;P2;SDS_P1;SDS_P2;PMS_P1;PMS_P2;Temp;Humidity;BMP_temperature;BMP_pressure;BME280_temperature;BME280_humidity;BME280_pressure;Samples;Min_cycle;Max_cycle;Signal;HPM_P1;HPM_P2
2022/10/19 00:01:11;;;;;;;1.60;0.60;;;10.60;99.90;;;;;;4906561;29;20491;-73
2022/10/19 00:03:37;;;;;;;1.15;0.60;;;10.30;99.90;;;;;;4922184;29;20562;-72
2022/10/19 00:06:28;;;;;;;3.72;0.52;;;10.30;99.90;;;;;;4906185;29;20079;-73
2022/10/19 00:08:56;;;;;;;4.88;0.73;;;10.30;99.90;;;;;;4922370;29;20498;-73
2022/10/19 00:11:23;;;;;;;1.13;0.60;;;10.30;99.90;;;;;;4906139;29;20039;-73
2022/10/19 00:13:49;;;;;;;2.72;0.80;;;10.30;99.90;;;;;;4905970;29;20066;-73
2022/10/19 00:16:16;;;;;;;3.10;0.65;;;10.20;99.90;;;;;;4906127;29;20044;-73
2022/10/19 00:18:43;;;;;;;0.65;0.57;;;10.30;99.90;;;;;;4906093;29;20398;-74
2022/10/19 00:21:11;;;;;;;0.43;0.43;;;10.40;99.90;;;;;;4906166;29;20547;-73
2022/10/19 00:23:37;;;;;;;1.70;0.60;;;10.40;99.90;;;;;;4921588;29;20054;-73
2022/10/19 00:26:03;;;;;;;3.00;0.63;;;10.30;99.90;;;;;;4906052;29;20043;-72
2022/10/19 00:28:29;;;;;;;3.03;0.70;;;10.30;99.90;;;;;;4921429;29;20040;-73
2022/10/19 00:30:55;;;;;;;3.47;0.85;;;10.30;99.90;;;;;;4905823;29;20047;-73
2022/10/19 00:33:21;;;;;;;1.52;0.70;;;10.40;99.90;;;;;;4905728;29;20078;-73
2022/10/19 00:35:49;;;;;;;5.45;0.93;;;10.40;99.90;;;;;;4921365;29;20052;-73
2022/10/19 00:38:16;;;;;;;0.43;0.40;;;10.40;99.90;;;;;;4921499;29;20134;-73
2022/10/19 00:40:43;;;;;;;2.10;0.85;;;10.40;99.90;;;;;;4905005;29;20491;-73
2022/10/19 00:43:30;;;;;;;0.98;0.75;;;10.40;99.90;;;;;;4905800;29;20578;-73
2022/10/19 00:45:55;;;;;;;1.20;0.68;;;10.50;99.90;;;;;;4918308;29;20058;-72
2022/10/19 00:48:26;;;;;;;2.95;0.70;;;10.50;99.90;;;;;;4921560;29;20039;-73
2022/10/19 00:50:54;;;;;;;1.33;0.50;;;10.40;99.90;;;;;;4936933;29;20043;-72
2022/10/19 00:53:22;;;;;;;0.95;0.60;;;10.60;99.90;;;;;;4936905;29;20113;-73
2022/10/19 00:55:48;;;;;;;1.60;0.70;;;10.60;99.90;;;;;;4921002;29;20047;-73
2022/10/19 00:58:14;;;;;;;1.65;0.63;;;10.50;99.90;;;;;;4936745;29;20458;-73
2022/10/19 01:00:40;;;;;;;1.17;0.60;;;10.50;99.90;;;;;;4905288;29;20392;-73
2022/10/19 01:03:07;;;;;;;1.77;0.73;;;10.60;99.90;;;;;;4920951;29;20048;-73
2022/10/19 01:05:34;;;;;;;2.40;0.90;;;10.50;99.90;;;;;;4921116;29;20048;-73
2022/10/19 01:08:00;;;;;;;1.17;0.63;;;10.50;99.90;;;;;;4936617;29;20126;-72
2022/10/19 01:11:00;;;;;;;2.08;0.60;;;10.60;99.90;;;;;;4936549;29;20051;-73
2022/10/19 01:13:45;;;;;;;0.83;0.50;;;10.50;99.90;;;;;;4936573;29;20050;-73
2022/10/19 01:16:32;;;;;;;1.92;0.50;;;10.50;99.90;;;;;;4936468;29;20039;-73
2022/10/19 01:19:31;;;;;;;2.40;0.73;;;10.50;99.90;;;;;;4920778;29;20479;-73
2022/10/19 01:22:25;;;;;;;0.22;0.22;;;10.50;99.90;;;;;;4920565;29;20066;-73
2022/10/19 01:25:10;;;;;;;2.60;0.75;;;10.50;99.90;;;;;;4920556;29;20048;-72
2022/10/19 01:27:36;;;;;;;0.57;0.40;;;10.50;99.90;;;;;;4936308;29;20047;-73
2022/10/19 01:39:04;;;;;;;0.50;0.50;;;10.60;99.90;;;;;;2585695;23;20047;-77
2022/10/19 01:41:39;;;;;;;1.05;0.60;;;10.70;99.90;;;;;;4923202;29;20137;-78
2022/10/19 01:44:13;;;;;;;1.05;0.55;;;10.60;99.90;;;;;;4939273;29;20043;-78
2022/10/19 01:46:43;;;;;;;3.33;0.65;;;10.50;99.90;;;;;;4923438;29;20566;-78
2022/10/19 01:49:44;;;;;;;2.35;0.50;;;10.60;99.90;;;;;;4939284;29;20491;-78
2022/10/19 01:52:14;;;;;;;2.78;0.60;;;10.70;99.90;;;;;;4938225;29;20487;-78
2022/10/19 01:54:46;;;;;;;4.60;0.38;;;10.70;99.90;;;;;;4938930;29;20085;-77
2022/10/19 01:57:15;;;;;;;3.60;0.50;;;10.70;99.90;;;;;;4939116;29;20050;-78
2022/10/19 01:59:42;;;;;;;0.55;0.40;;;10.70;99.90;;;;;;4938780;29;20047;-78
2022/10/19 02:02:09;;;;;;;1.33;0.52;;;10.70;99.90;;;;;;4938775;29;20039;-78
2022/10/19 02:04:37;;;;;;;1.08;0.60;;;10.70;99.90;;;;;;4922913;29;20046;-78
2022/10/19 02:07:06;;;;;;;1.83;0.77;;;10.60;99.90;;;;;;4938727;29;20042;-78
2022/10/19 02:09:32;;;;;;;0.52;0.50;;;10.70;99.90;;;;;;4938923;29;20114;-78
2022/10/19 02:12:02;;;;;;;0.47;0.47;;;10.70;99.90;;;;;;4922825;29;20039;-78
2022/10/19 02:14:46;;;;;;;1.20;0.60;;;10.80;99.90;;;;;;4938636;29;20047;-78
2022/10/19 02:17:19;;;;;;;2.58;0.80;;;10.80;99.90;;;;;;4922697;29;20043;-78
2022/10/19 02:19:45;;;;;;;0.75;0.45;;;10.80;99.90;;;;;;4922565;29;20050;-78
2022/10/19 02:22:12;;;;;;;0.50;0.50;;;10.80;99.90;;;;;;4938796;29;20051;-78
2022/10/19 02:24:38;;;;;;;1.60;0.70;;;10.80;99.90;;;;;;4938425;29;20402;-78
2022/10/19 02:27:06;;;;;;;0.35;0.35;;;10.80;99.90;;;;;;4938607;29;20054;-78
2022/10/19 02:29:33;;;;;;;0.88;0.50;;;10.80;99.90;;;;;;4938369;29;20043;-78
2022/10/19 02:32:00;;;;;;;2.03;0.52;;;10.80;99.90;;;;;;4938607;29;20089;-78
2022/10/19 02:34:26;;;;;;;1.00;0.60;;;10.80;99.90;;;;;;4938337;29;20047;-78
2022/10/19 02:36:53;;;;;;;0.93;0.50;;;10.90;99.90;;;;;;4922435;29;20599;-78
2022/10/19 02:39:19;;;;;;;4.38;0.45;;;10.90;99.90;;;;;;4922203;29;20074;-77
2022/10/19 02:41:58;;;;;;;0.32;0.30;;;10.80;99.90;;;;;;4938162;29;20051;-77
2022/10/19 02:44:39;;;;;;;1.65;0.55;;;10.80;99.90;;;;;;4922681;29;20399;-78
2022/10/19 02:47:16;;;;;;;1.15;0.60;;;10.80;99.90;;;;;;4922331;29;20051;-78
2022/10/19 02:49:43;;;;;;;1.15;0.47;;;10.80;99.90;;;;;;4922620;29;20521;-78
2022/10/19 02:52:11;;;;;;;1.42;0.50;;;10.80;99.90;;;;;;4922454;29;20050;-77
2022/10/19 02:54:38;;;;;;;1.85;0.60;;;10.70;99.90;;;;;;4938022;29;20053;-78
2022/10/19 02:57:21;;;;;;;2.65;0.50;;;10.70;99.90;;;;;;4938000;29;20053;-78
2022/10/19 02:59:47;;;;;;;1.85;0.65;;;10.70;99.90;;;;;;4938006;29;20529;-78
2022/10/19 03:02:15;;;;;;;0.95;0.40;;;10.70;99.90;;;;;;4921907;29;20122;-78
2022/10/19 03:04:41;;;;;;;0.43;0.38;;;10.70;99.90;;;;;;4937957;29;20043;-78
2022/10/19 03:07:15;;;;;;;1.23;0.52;;;10.70;99.90;;;;;;4937932;29;20130;-78
2022/10/19 03:09:41;;;;;;;0.82;0.47;;;10.70;99.90;;;;;;4937884;29;20043;-78
2022/10/19 03:12:07;;;;;;;2.33;0.47;;;10.60;99.90;;;;;;4921993;29;20107;-78
2022/10/19 03:14:33;;;;;;;1.33;0.50;;;10.60;99.90;;;;;;4937919;29;20055;-78
2022/10/19 03:16:59;;;;;;;1.85;0.38;;;10.60;99.90;;;;;;4922233;29;20560;-78
2022/10/19 03:19:24;;;;;;;2.63;0.77;;;10.60;99.90;;;;;;4937966;29;20138;-78
2022/10/19 03:21:50;;;;;;;0.30;0.30;;;10.50;99.90;;;;;;4921911;29;20113;-77
2022/10/19 03:24:16;;;;;;;2.05;0.93;;;10.50;99.90;;;;;;4921907;29;20046;-78
2022/10/19 03:26:42;;;;;;;2.17;0.65;;;10.50;99.90;;;;;;4922028;29;20094;-78
2022/10/19 03:29:07;;;;;;;3.65;0.75;;;10.50;99.90;;;;;;4906473;29;20051;-78
2022/10/19 03:31:33;;;;;;;0.88;0.47;;;10.70;99.90;;;;;;4921900;29;20047;-78
2022/10/19 03:33:59;;;;;;;0.93;0.38;;;10.40;99.90;;;;;;4937897;29;20043;-78
2022/10/19 03:36:30;;;;;;;1.25;0.40;;;10.40;99.90;;;;;;4921936;29;20101;-77
2022/10/19 03:38:58;;;;;;;2.88;0.88;;;10.20;99.90;;;;;;4921885;29;20044;-77
2022/10/19 03:41:27;;;;;;;2.65;0.50;;;10.20;99.90;;;;;;4922119;29;20483;-78
2022/10/19 03:43:53;;;;;;;3.53;0.60;;;10.10;99.90;;;;;;4921774;29;20035;-78
2022/10/19 03:46:19;;;;;;;1.98;0.35;;;10.00;99.90;;;;;;4937590;29;20070;-78
2022/10/19 03:48:46;;;;;;;0.52;0.47;;;10.00;99.90;;;;;;4937492;29;20114;-77
2022/10/19 03:51:18;;;;;;;2.10;0.60;;;10.00;99.90;;;;;;4921785;29;20046;-78
2022/10/19 03:53:44;;;;;;;0.70;0.45;;;10.00;99.90;;;;;;4937911;29;20491;-78
2022/10/19 03:56:13;;;;;;;1.90;0.63;;;9.90;99.90;;;;;;4921705;29;20108;-77
2022/10/19 03:58:40;;;;;;;1.00;0.47;;;10.30;99.90;;;;;;4937750;29;20446;-78
2022/10/19 04:01:09;;;;;;;2.15;0.70;;;10.30;99.90;;;;;;4921709;29;20074;-77
2022/10/19 04:03:35;;;;;;;0.73;0.50;;;9.90;99.90;;;;;;4937727;29;20042;-77
2022/10/19 04:06:03;;;;;;;1.00;0.60;;;9.90;99.90;;;;;;4937425;29;20043;-77
2022/10/19 04:08:29;;;;;;;2.65;0.68;;;9.90;99.90;;;;;;4937058;29;20035;-77
2022/10/19 04:11:02;;;;;;;4.97;0.68;;;10.00;99.90;;;;;;4905874;29;20113;-78
2022/10/19 04:13:29;;;;;;;0.40;0.40;;;9.90;99.90;;;;;;4937367;28;20043;-78
2022/10/19 04:15:54;;;;;;;0.85;0.60;;;9.90;99.90;;;;;;4940037;29;20079;-78
2022/10/19 04:18:20;;;;;;;0.28;0.22;;;9.90;99.90;;;;;;4909149;29;20075;-78
2022/10/19 04:20:46;;;;;;;0.50;0.30;;;9.90;99.90;;;;;;4940733;29;20043;-78
2022/10/19 04:23:12;;;;;;;2.60;0.47;;;9.90;99.90;;;;;;4940940;29;20479;-77
2022/10/19 04:28:05;;;;;;;0.70;0.50;;;9.90;99.90;;;;;;4936910;29;20507;-69
2022/10/19 04:30:31;;;;;;;2.95;0.57;;;10.10;99.90;;;;;;4938635;29;20048;-69
2022/10/19 04:32:56;;;;;;;1.38;0.57;;;9.90;99.90;;;;;;4905731;29;20051;-69
2022/10/19 04:35:22;;;;;;;0.70;0.38;;;9.90;99.90;;;;;;4938756;29;20056;-69
2022/10/19 04:37:48;;;;;;;1.55;0.57;;;9.90;99.90;;;;;;4938401;29;20094;-69
2022/10/19 04:40:13;;;;;;;1.30;0.40;;;9.90;99.90;;;;;;4938552;29;20094;-69
2022/10/19 04:42:39;;;;;;;3.15;0.60;;;9.90;99.90;;;;;;4957286;23;20107;-73
2022/10/19 04:45:05;;;;;;;1.80;0.50;;;9.90;99.90;;;;;;4896144;23;20391;-73
2022/10/19 04:47:31;;;;;;;0.82;0.47;;;9.90;99.90;;;;;;4921251;29;20103;-74
2022/10/19 04:49:57;;;;;;;2.58;0.50;;;9.90;99.90;;;;;;4937028;29;20039;-73
2022/10/19 04:52:22;;;;;;;6.47;0.75;;;9.90;99.90;;;;;;4937175;29;20138;-73
2022/10/19 04:54:48;;;;;;;1.13;0.40;;;9.90;99.90;;;;;;4921352;29;20046;-73
2022/10/19 04:57:14;;;;;;;3.95;0.55;;;9.90;99.90;;;;;;4936908;29;20043;-73
2022/10/19 04:59:39;;;;;;;0.98;0.52;;;9.90;99.90;;;;;;4936677;29;20036;-73
2022/10/19 05:02:05;;;;;;;1.48;0.40;;;9.80;99.90;;;;;;4936968;29;20090;-73
2022/10/19 05:04:31;;;;;;;0.93;0.52;;;9.90;99.90;;;;;;4921204;29;20036;-73
2022/10/19 05:06:56;;;;;;;2.78;0.60;;;9.80;99.90;;;;;;4905076;29;20183;-73
2022/10/19 05:09:22;;;;;;;1.40;0.55;;;9.80;99.90;;;;;;4936941;29;20047;-73
2022/10/19 05:11:49;;;;;;;0.68;0.60;;;9.80;99.90;;;;;;4936597;29;20036;-73
2022/10/19 05:14:15;;;;;;;4.68;0.70;;;9.80;99.90;;;;;;4905430;29;20044;-73
2022/10/19 05:16:41;;;;;;;1.40;0.50;;;9.80;99.90;;;;;;4905148;29;20050;-73
2022/10/19 05:19:10;;;;;;;0.43;0.30;;;9.80;99.90;;;;;;4936342;29;20047;-73
2022/10/19 05:21:36;;;;;;;2.83;0.75;;;9.70;99.90;;;;;;4936690;29;20467;-73
2022/10/19 05:24:02;;;;;;;1.08;0.77;;;9.70;99.90;;;;;;4920586;29;20040;-73
2022/10/19 05:26:29;;;;;;;2.05;0.63;;;9.70;99.90;;;;;;4905122;29;20035;-73
2022/10/19 05:28:58;;;;;;;3.63;0.85;;;9.70;99.90;;;;;;4920355;29;20075;-73
2022/10/19 05:31:26;;;;;;;2.83;0.68;;;9.80;99.90;;;;;;4920373;29;20044;-73
2022/10/19 05:33:52;;;;;;;1.23;0.57;;;9.80;99.90;;;;;;4920476;29;20459;-73
2022/10/19 05:36:35;;;;;;;4.10;0.80;;;9.80;99.90;;;;;;4936378;29;20058;-73
2022/10/19 05:39:08;;;;;;;1.77;0.45;;;9.80;99.90;;;;;;4936299;29;20046;-74
2022/10/19 05:41:33;;;;;;;2.83;0.75;;;10.20;99.90;;;;;;4936288;29;20499;-73
2022/10/19 05:44:01;;;;;;;2.88;0.43;;;9.70;99.90;;;;;;4904218;29;20110;-73
2022/10/19 05:46:28;;;;;;;1.55;0.52;;;9.80;99.90;;;;;;4904357;29;20055;-73
2022/10/19 05:48:55;;;;;;;3.40;0.63;;;9.80;99.90;;;;;;4935834;29;20086;-73
2022/10/19 05:51:22;;;;;;;1.55;0.52;;;9.80;99.90;;;;;;4920089;29;20062;-73
2022/10/19 05:53:48;;;;;;;0.85;0.32;;;9.80;99.90;;;;;;4936071;29;20524;-73
2022/10/19 05:56:17;;;;;;;1.13;0.40;;;10.00;99.90;;;;;;4935727;29;20043;-73
2022/10/19 05:58:44;;;;;;;0.95;0.40;;;10.20;99.90;;;;;;4935554;29;20059;-73
2022/10/19 06:01:09;;;;;;;2.05;0.60;;;9.90;99.90;;;;;;4935638;29;20179;-73
2022/10/19 06:03:35;;;;;;;4.32;0.70;;;9.80;99.90;;;;;;4935609;29;20458;-73
2022/10/19 06:06:06;;;;;;;0.63;0.32;;;9.90;99.90;;;;;;4904457;29;20407;-74
2022/10/19 06:08:33;;;;;;;3.40;0.50;;;9.90;99.90;;;;;;4919917;29;20084;-73
2022/10/19 06:11:04;;;;;;;1.02;0.35;;;9.80;99.90;;;;;;4935549;29;20040;-73
2022/10/19 06:13:30;;;;;;;6.28;0.43;;;9.90;99.90;;;;;;4919673;29;20035;-73
2022/10/19 06:15:56;;;;;;;1.00;0.47;;;9.90;99.90;;;;;;4935644;29;20046;-73
2022/10/19 06:18:24;;;;;;;3.10;0.50;;;9.80;99.90;;;;;;4888148;29;20036;-73
2022/10/19 06:20:51;;;;;;;1.42;0.40;;;9.90;99.90;;;;;;4935389;29;20044;-73
2022/10/19 06:23:17;;;;;;;1.85;0.50;;;9.90;99.90;;;;;;4919461;29;20048;-73
2022/10/19 06:25:42;;;;;;;2.85;0.80;;;10.00;99.90;;;;;;4919529;29;20051;-73
2022/10/19 06:28:08;;;;;;;3.40;0.85;;;10.00;99.90;;;;;;4904007;29;20372;-72
2022/10/19 06:33:03;;;;;;;2.38;0.70;;;10.00;99.90;;;;;;4915781;29;20515;-69
2022/10/19 06:35:29;;;;;;;1.35;0.70;;;10.00;99.90;;;;;;4917330;29;20048;-69
2022/10/19 06:37:56;;;;;;;4.03;0.40;;;10.10;99.90;;;;;;4900135;29;20036;-69
2022/10/19 06:40:22;;;;;;;0.85;0.60;;;10.10;99.90;;;;;;4900163;29;20099;-68
2022/10/19 06:42:48;;;;;;;3.45;0.55;;;10.20;99.90;;;;;;4917376;29;20044;-69
2022/10/19 06:45:14;;;;;;;2.22;0.55;;;10.70;99.90;;;;;;4900097;29;20055;-69
2022/10/19 06:47:39;;;;;;;0.80;0.50;;;10.20;99.90;;;;;;4956839;23;20051;-78
2022/10/19 06:50:06;;;;;;;1.27;0.60;;;10.30;99.90;;;;;;4909784;23;20091;-76
2022/10/19 06:52:33;;;;;;;3.88;0.65;;;10.30;99.90;;;;;;4935140;29;20047;-76
2022/10/19 06:54:59;;;;;;;3.85;0.50;;;10.40;99.90;;;;;;4919038;29;20054;-76
2022/10/19 06:57:24;;;;;;;5.03;0.40;;;10.40;99.90;;;;;;4919307;29;20035;-76
2022/10/19 06:59:50;;;;;;;0.47;0.40;;;10.40;99.90;;;;;;4918836;29;20047;-76
2022/10/19 07:02:16;;;;;;;2.08;0.60;;;10.40;99.90;;;;;;4935026;29;20096;-76
2022/10/19 07:04:45;;;;;;;2.13;0.47;;;10.40;99.90;;;;;;4935878;29;20116;-76
2022/10/19 07:07:11;;;;;;;2.60;0.98;;;10.50;99.90;;;;;;4903280;29;20039;-76
2022/10/19 07:09:36;;;;;;;1.67;0.50;;;10.50;99.90;;;;;;4934899;29;20044;-76
2022/10/19 07:12:02;;;;;;;1.35;0.43;;;10.60;99.90;;;;;;4903139;29;20036;-76
2022/10/19 07:14:28;;;;;;;3.22;1.08;;;10.60;99.90;;;;;;4918850;29;20039;-76
2022/10/19 07:16:54;;;;;;;3.80;0.50;;;10.70;99.90;;;;;;4903359;29;20396;-76
2022/10/19 07:19:24;;;;;;;1.10;0.57;;;10.70;99.90;;;;;;4918678;29;20103;-76
2022/10/19 07:21:50;;;;;;;1.48;0.57;;;10.70;99.90;;;;;;4919258;29;20036;-76
2022/10/19 07:24:16;;;;;;;2.88;0.90;;;10.80;99.90;;;;;;4919049;29;20044;-76
2022/10/19 07:26:42;;;;;;;0.95;0.40;;;10.80;99.90;;;;;;4918787;29;20039;-76
2022/10/19 07:29:08;;;;;;;1.33;0.40;;;10.90;99.90;;;;;;4903266;29;20126;-76
2022/10/19 07:31:34;;;;;;;3.20;0.70;;;10.90;99.90;;;;;;4934753;29;20086;-76
2022/10/19 07:34:02;;;;;;;1.65;0.40;;;11.00;99.90;;;;;;4918638;29;20095;-76
2022/10/19 07:36:31;;;;;;;3.50;0.60;;;11.00;99.90;;;;;;4918581;29;20455;-76
2022/10/19 07:38:57;;;;;;;1.92;0.60;;;11.10;99.90;;;;;;4918661;29;20055;-76
2022/10/19 07:41:24;;;;;;;3.17;0.55;;;11.10;99.90;;;;;;4903019;29;20040;-76
2022/10/19 07:43:50;;;;;;;2.75;0.70;;;11.20;99.90;;;;;;4934720;29;20047;-76
2022/10/19 07:46:22;;;;;;;1.30;0.35;;;11.20;99.90;;;;;;4887626;29;20043;-76
2022/10/19 07:48:48;;;;;;;4.60;0.82;;;11.30;99.90;;;;;;4919717;29;20511;-76
2022/10/19 07:51:15;;;;;;;0.20;0.20;;;11.30;99.90;;;;;;4906572;29;20108;-76
2022/10/19 07:53:42;;;;;;;0.43;0.30;;;11.40;99.90;;;;;;4938131;29;20118;-76
2022/10/19 07:56:19;;;;;;;0.95;0.52;;;11.50;99.90;;;;;;4937931;29;20043;-76
2022/10/19 07:58:45;;;;;;;5.22;0.82;;;11.50;99.90;;;;;;4921987;29;20060;-76
2022/10/19 08:01:14;;;;;;;0.50;0.32;;;11.50;99.90;;;;;;4938065;29;20479;-76
2022/10/19 08:03:40;;;;;;;5.00;0.75;;;11.50;99.90;;;;;;4922034;29;20046;-76
2022/10/19 08:06:09;;;;;;;1.60;0.40;;;11.50;99.90;;;;;;4921969;29;20035;-76
2022/10/19 08:08:36;;;;;;;3.08;1.15;;;11.50;99.90;;;;;;4921970;29;20115;-76
2022/10/19 08:11:26;;;;;;;1.75;0.90;;;11.60;99.90;;;;;;4921988;29;20040;-76
2022/10/19 08:13:52;;;;;;;1.75;1.05;;;11.60;99.90;;;;;;4937937;29;20043;-76
2022/10/19 08:16:32;;;;;;;1.15;0.80;;;11.70;99.90;;;;;;4906390;29;20391;-76
2022/10/19 08:19:00;;;;;;;0.47;0.35;;;12.00;99.90;;;;;;4937496;29;20043;-76
2022/10/19 08:21:27;;;;;;;7.57;0.73;;;11.80;99.90;;;;;;4937528;29;20098;-76
2022/10/19 08:23:53;;;;;;;2.63;0.40;;;11.90;99.90;;;;;;4937710;29;20483;-76
2022/10/19 08:26:19;;;;;;;0.43;0.32;;;11.90;99.90;;;;;;4937421;29;20039;-76
2022/10/19 08:28:45;;;;;;;4.43;0.68;;;12.00;99.90;;;;;;4921697;29;20044;-76
2022/10/19 08:31:13;;;;;;;3.10;0.38;;;12.10;99.90;;;;;;4937624;29;20036;-76
2022/10/19 08:33:39;;;;;;;1.58;0.47;;;12.20;99.90;;;;;;4937312;29;20047;-76
2022/10/19 08:36:06;;;;;;;0.93;0.45;;;;;;;;;;4905982;29;20044;-76
2022/10/19 08:38:34;;;;;;;0.70;0.22;;;12.20;99.90;;;;;;4937386;29;20047;-76
2022/10/19 08:41:22;;;;;;;0.75;0.40;;;12.20;99.90;;;;;;4937161;29;20167;-76
2022/10/19 08:44:17;;;;;;;0.30;0.30;;;12.30;99.90;;;;;;4921315;29;20043;-76
2022/10/19 08:46:49;;;;;;;2.78;0.28;;;12.30;99.90;;;;;;4896486;29;20055;-76
2022/10/19 08:49:22;;;;;;;0.98;0.40;;;12.30;99.90;;;;;;4921235;29;20098;-76
2022/10/19 08:51:54;;;;;;;2.05;0.80;;;12.40;99.90;;;;;;4921181;29;20099;-76
2022/10/19 08:54:19;;;;;;;4.03;0.22;;;12.50;99.90;;;;;;4936956;29;20051;-76
2022/10/19 08:57:10;;;;;;;7.10;0.80;;;12.50;99.90;;;;;;4905365;29;20052;-76
2022/10/19 08:59:49;;;;;;;1.33;0.68;;;12.60;99.90;;;;;;4920758;29;20043;-76
2022/10/19 09:02:42;;;;;;;4.25;0.55;;;12.60;99.90;;;;;;4936636;29;20047;-76
2022/10/19 09:05:30;;;;;;;3.80;0.55;;;12.70;99.90;;;;;;4936964;29;20124;-76
2022/10/19 09:07:56;;;;;;;5.38;0.40;;;12.70;99.90;;;;;;4936643;29;20092;-76
2022/10/19 09:10:33;;;;;;;2.55;0.50;;;12.70;99.90;;;;;;4936657;29;20055;-76
2022/10/19 09:13:00;;;;;;;1.83;0.43;;;12.70;99.90;;;;;;4936853;29;20487;-76
2022/10/19 09:15:38;;;;;;;5.25;0.90;;;12.80;99.90;;;;;;4936783;29;20036;-76
2022/10/19 09:18:26;;;;;;;2.38;0.50;;;12.90;99.90;;;;;;4920645;29;20091;-76
2022/10/19 09:21:01;;;;;;;1.13;0.32;;;12.80;99.40;;;;;;4920863;29;20127;-76
2022/10/19 09:23:26;;;;;;;4.82;0.68;;;12.80;99.80;;;;;;4920560;29;20036;-76
2022/10/19 09:25:54;;;;;;;1.65;0.50;;;12.90;99.90;;;;;;4936312;29;20488;-76
2022/10/19 09:28:39;;;;;;;1.00;0.50;;;13.20;99.90;;;;;;4920462;29;20044;-76
2022/10/19 09:31:10;;;;;;;4.32;0.50;;;13.00;99.90;;;;;;4936155;29;20044;-76
2022/10/19 09:33:38;;;;;;;1.73;0.40;;;13.00;99.90;;;;;;4936220;29;20051;-76
2022/10/19 09:36:06;;;;;;;0.82;0.43;;;13.10;99.90;;;;;;4936188;29;20044;-76
2022/10/19 09:38:32;;;;;;;2.70;0.50;;;13.00;99.00;;;;;;4920229;29;20082;-76
2022/10/19 09:41:16;;;;;;;1.83;0.65;;;13.00;99.90;;;;;;4920227;29;20036;-76
2022/10/19 09:43:49;;;;;;;2.78;0.63;;;13.00;97.40;;;;;;4936024;29;20050;-76
2022/10/19 09:46:33;;;;;;;3.55;0.47;;;12.90;98.00;;;;;;4935984;29;20052;-76
2022/10/19 09:49:02;;;;;;;2.35;0.65;;;13.00;99.40;;;;;;4919901;29;20064;-76
2022/10/19 09:51:58;;;;;;;0.93;0.45;;;13.00;99.20;;;;;;4935876;29;20059;-76
2022/10/19 09:54:43;;;;;;;2.42;0.60;;;13.00;96.80;;;;;;4919451;29;20047;-76
2022/10/19 09:57:20;;;;;;;1.05;0.50;;;13.00;97.50;;;;;;4936012;29;20043;-76
2022/10/19 09:59:51;;;;;;;1.35;0.50;;;13.00;97.50;;;;;;4935587;29;20047;-76
2022/10/19 10:02:20;;;;;;;1.13;0.47;;;13.00;97.60;;;;;;4919871;29;20050;-76
2022/10/19 10:05:05;;;;;;;1.52;0.38;;;13.10;97.70;;;;;;4935614;29;20102;-76
2022/10/19 10:07:37;;;;;;;2.42;0.70;;;13.10;97.50;;;;;;4919834;29;20079;-76
2022/10/19 10:10:23;;;;;;;1.23;0.43;;;13.10;95.80;;;;;;4919982;29;20052;-76
2022/10/19 10:12:50;;;;;;;0.77;0.30;;;13.20;94.20;;;;;;4934621;29;20111;-76
2022/10/19 10:15:22;;;;;;;1.52;0.40;;;13.20;95.60;;;;;;4935740;29;20069;-76
2022/10/19 10:17:49;;;;;;;1.20;0.40;;;13.20;94.50;;;;;;4935349;29;20131;-76
2022/10/19 10:20:18;;;;;;;1.30;0.45;;;13.30;96.00;;;;;;4904054;29;20507;-76
2022/10/19 10:22:56;;;;;;;1.23;0.40;;;13.30;95.90;;;;;;4935759;29;20043;-76
2022/10/19 10:25:29;;;;;;;1.17;0.47;;;13.40;95.70;;;;;;4935578;29;20039;-76
2022/10/19 10:28:15;;;;;;;1.30;0.40;;;13.40;94.60;;;;;;4919411;29;20136;-76
2022/10/19 10:30:44;;;;;;;1.35;0.38;;;13.50;95.00;;;;;;4919426;29;20044;-75
2022/10/19 10:33:16;;;;;;;1.23;0.40;;;13.60;95.90;;;;;;4919446;29;20074;-76
2022/10/19 10:35:52;;;;;;;2.30;0.65;;;13.60;95.70;;;;;;4919362;29;20086;-76
2022/10/19 10:38:25;;;;;;;4.35;0.47;;;13.70;97.10;;;;;;4935152;29;20051;-76
2022/10/19 10:40:58;;;;;;;1.75;0.38;;;13.70;96.00;;;;;;4935030;29;20051;-76
2022/10/19 10:43:32;;;;;;;0.45;0.30;;;13.70;95.90;;;;;;4919545;29;20126;-76
2022/10/19 10:46:06;;;;;;;1.80;0.45;;;13.70;94.20;;;;;;4934997;29;20039;-76
2022/10/19 10:48:37;;;;;;;1.45;0.75;;;13.50;86.60;;;;;;4934819;29;20091;-76
2022/10/19 10:51:23;;;;;;;2.60;0.57;;;13.50;91.60;;;;;;4934971;29;20043;-76
2022/10/19 10:53:49;;;;;;;1.65;0.55;;;13.50;94.60;;;;;;4919064;29;20036;-76
2022/10/19 10:56:24;;;;;;;1.60;0.50;;;13.60;93.40;;;;;;4934888;29;20095;-76
2022/10/19 10:59:11;;;;;;;3.03;0.70;;;13.60;94.60;;;;;;4934802;29;20058;-75
2022/10/19 11:01:44;;;;;;;0.85;0.32;;;13.70;94.00;;;;;;4935029;29;20456;-76
2022/10/19 11:04:22;;;;;;;1.48;0.40;;;13.70;94.40;;;;;;4934743;29;20131;-76
2022/10/19 11:06:59;;;;;;;3.50;0.75;;;13.60;87.50;;;;;;4934772;29;20032;-76
2022/10/19 11:09:33;;;;;;;6.43;0.40;;;13.60;88.20;;;;;;4918902;29;20405;-76
2022/10/19 11:12:03;;;;;;;3.58;0.40;;;13.70;94.20;;;;;;4919099;29;20396;-76
2022/10/19 11:14:31;;;;;;;1.00;0.63;;;13.70;92.10;;;;;;4918856;29;20046;-76
2022/10/19 11:17:03;;;;;;;2.63;0.30;;;13.70;92.70;;;;;;4934504;29;20079;-76
2022/10/19 11:19:38;;;;;;;4.65;0.80;;;13.60;91.80;;;;;;4934579;29;20047;-76
2022/10/19 11:22:39;;;;;;;2.40;0.55;;;13.60;87.40;;;;;;4918750;29;20099;-76
2022/10/19 11:25:43;;;;;;;0.50;0.50;;;13.50;93.30;;;;;;4938305;29;20035;-76
2022/10/19 11:28:43;;;;;;;0.60;0.50;;;13.60;93.00;;;;;;4938393;29;20046;-76
2022/10/19 11:31:21;;;;;;;1.63;0.80;;;13.60;92.10;;;;;;4938641;29;20403;-76
2022/10/19 11:34:17;;;;;;;2.67;0.60;;;13.70;94.80;;;;;;4938313;29;20043;-76
2022/10/19 11:37:00;;;;;;;1.05;0.40;;;13.80;93.80;;;;;;4938496;29;20091;-76
2022/10/19 11:40:03;;;;;;;1.98;0.50;;;13.80;94.00;;;;;;4938152;29;20369;-76
2022/10/19 11:42:46;;;;;;;1.42;0.52;;;13.90;93.80;;;;;;4938099;29;20099;-76
2022/10/19 11:45:46;;;;;;;3.47;0.73;;;13.80;86.20;;;;;;4938321;29;20046;-76
2022/10/19 11:48:50;;;;;;;2.30;0.35;;;13.70;90.70;;;;;;4937914;28;20176;-76
2022/10/19 11:51:28;;;;;;;0.75;0.40;;;13.80;90.70;;;;;;4888936;29;20090;-76
2022/10/19 11:54:31;;;;;;;0.85;0.38;;;13.90;91.50;;;;;;4922103;29;20048;-76
2022/10/19 11:57:15;;;;;;;1.23;0.50;;;14.10;92.40;;;;;;4906317;29;20071;-76
2022/10/19 12:00:21;;;;;;;3.75;0.50;;;14.30;92.40;;;;;;4922050;29;20487;-76
2022/10/19 12:03:11;;;;;;;1.20;0.47;;;14.30;86.70;;;;;;4905399;29;20052;-76
2022/10/19 12:05:37;;;;;;;0.85;0.20;;;14.60;86.10;;;;;;4906199;29;20043;-76
2022/10/19 12:08:33;;;;;;;3.33;0.47;;;14.90;87.60;;;;;;4922160;29;20116;-76
2022/10/19 12:11:23;;;;;;;0.93;0.30;;;15.00;69.20;;;;;;4921720;29;20123;-76
2022/10/19 12:14:13;;;;;;;1.75;0.40;;;15.10;71.30;;;;;;4921950;29;20067;-76
2022/10/19 12:16:48;;;;;;;1.13;0.30;;;15.20;74.50;;;;;;4921637;29;20051;-76
2022/10/19 12:19:23;;;;;;;2.55;0.57;;;15.10;63.40;;;;;;4921629;29;20119;-76
2022/10/19 12:21:52;;;;;;;2.42;0.35;;;15.20;80.70;;;;;;4921584;29;20046;-76
2022/10/19 12:24:22;;;;;;;0.28;0.20;;;15.00;78.80;;;;;;4905971;29;20155;-76
2022/10/19 12:26:49;;;;;;;0.38;0.10;;;14.80;74.00;;;;;;4921568;29;20102;-76
2022/10/19 12:29:21;;;;;;;3.60;0.60;;;14.80;79.80;;;;;;4906022;29;20039;-76
2022/10/19 12:31:49;;;;;;;2.47;0.60;;;14.80;84.70;;;;;;4921667;29;20047;-76
2022/10/19 12:35:10;;;;;;;1.10;0.28;;;14.70;77.70;;;;;;4905892;29;20574;-76
2022/10/19 12:37:47;;;;;;;1.27;0.40;;;14.70;77.60;;;;;;4865059;29;20111;-76
2022/10/19 12:40:30;;;;;;;1.55;0.30;;;14.50;78.80;;;;;;4921283;29;20118;-76
2022/10/19 12:43:09;;;;;;;0.75;0.47;;;14.50;87.70;;;;;;4905804;29;20514;-75
2022/10/19 12:45:45;;;;;;;1.30;0.40;;;14.50;81.30;;;;;;4905623;29;20043;-76
2022/10/19 12:48:17;;;;;;;1.98;0.50;;;14.50;79.60;;;;;;4905291;29;20039;-74
2022/10/19 12:50:51;;;;;;;4.40;0.30;;;14.60;87.00;;;;;;4921413;29;20491;-74
2022/10/19 12:53:37;;;;;;;1.67;0.57;;;14.60;83.60;;;;;;4905716;29;20044;-74
2022/10/19 12:56:08;;;;;;;2.88;0.32;;;14.70;90.30;;;;;;4905613;29;20470;-74
2022/10/19 12:58:40;;;;;;;2.97;1.05;;;14.60;84.10;;;;;;4921017;29;20048;-74
2022/10/19 13:01:08;;;;;;;1.05;0.30;;;14.60;90.50;;;;;;4920942;29;20044;-74
2022/10/19 13:03:36;;;;;;;1.05;0.20;;;14.70;90.20;;;;;;4905195;29;20044;-74
2022/10/19 13:06:17;;;;;;;0.73;0.35;;;14.70;90.20;;;;;;4920947;29;20047;-74
2022/10/19 13:08:52;;;;;;;0.93;0.30;;;14.70;89.50;;;;;;4920839;29;20044;-74
2022/10/19 13:11:19;;;;;;;0.35;0.20;;;14.80;88.50;;;;;;4905028;29;20054;-74
2022/10/19 13:14:21;;;;;;;0.98;0.30;;;14.80;82.40;;;;;;4920672;29;20131;-74
2022/10/19 13:17:01;;;;;;;1.33;0.50;;;14.70;84.10;;;;;;4920324;29;20574;-75
2022/10/19 13:19:28;;;;;;;3.07;1.07;;;14.60;84.40;;;;;;4905086;29;20043;-74
2022/10/19 13:22:00;;;;;;;1.45;0.70;;;14.50;77.20;;;;;;4920781;29;20771;-74
2022/10/19 13:24:25;;;;;;;3.75;0.70;;;14.30;80.40;;;;;;4920518;29;20130;-74
2022/10/19 13:27:03;;;;;;;2.22;0.70;;;14.20;85.20;;;;;;4920732;29;20460;-74